createdAt,value
2022-10-23T00:01:28.261Z,11.00
2022-10-23T00:04:08.205Z,11.00
2022-10-23T00:06:36.255Z,11.00
2022-10-23T00:09:05.456Z,11.00
2022-10-23T00:11:33.796Z,10.90
2022-10-23T00:14:04.089Z,10.90
2022-10-23T00:16:31.189Z,10.90
2022-10-23T00:18:58.133Z,10.90
2022-10-23T00:21:25.593Z,10.80
2022-10-23T00:23:53.425Z,10.80
2022-10-23T00:26:20.602Z,10.80
2022-10-23T00:28:50.883Z,10.80
2022-10-23T00:31:19.228Z,10.80
2022-10-23T00:33:46.828Z,10.70
2022-10-23T00:36:16.254Z,10.70
2022-10-23T00:38:43.312Z,10.70
2022-10-23T00:41:24.531Z,10.70
2022-10-23T00:44:29.612Z,10.70
2022-10-23T00:46:57.821Z,10.70
2022-10-23T00:49:25.623Z,10.70
2022-10-23T00:51:57.316Z,10.70
2022-10-23T00:54:27.280Z,10.70
2022-10-23T00:56:58.538Z,10.70
2022-10-23T00:59:25.895Z,10.70
2022-10-23T01:01:52.892Z,10.70
2022-10-23T01:04:20.018Z,10.70
2022-10-23T01:07:00.547Z,10.60
2022-10-23T01:09:30.120Z,10.70
2022-10-23T01:12:05.545Z,10.60
2022-10-23T01:14:56.056Z,10.60
2022-10-23T01:17:28.958Z,10.60
2022-10-23T01:20:13.495Z,10.60
2022-10-23T01:22:52.143Z,10.60
2022-10-23T01:25:24.260Z,10.60
2022-10-23T01:27:59.997Z,10.60
2022-10-23T01:30:27.140Z,10.50
2022-10-23T01:33:06.743Z,10.50
2022-10-23T01:35:56.646Z,10.50
2022-10-23T01:38:31.080Z,10.50
2022-10-23T01:41:05.121Z,10.40
2022-10-23T01:43:49.719Z,10.40
2022-10-23T01:46:17.923Z,10.40
2022-10-23T01:48:51.395Z,10.30
2022-10-23T01:51:20.796Z,10.30
2022-10-23T01:53:49.699Z,10.30
2022-10-23T01:56:21.775Z,10.30
2022-10-23T01:58:52.259Z,10.20
2022-10-23T02:01:22.110Z,10.20
2022-10-23T02:03:50.860Z,10.20
2022-10-23T02:06:18.058Z,10.20
2022-10-23T02:08:44.972Z,10.20
2022-10-23T02:11:15.604Z,10.20
2022-10-23T02:14:01.799Z,10.20
2022-10-23T02:16:50.621Z,10.20
2022-10-23T02:19:38.851Z,10.20
2022-10-23T02:22:30.152Z,10.10
2022-10-23T02:25:11.758Z,10.10
2022-10-23T02:27:44.245Z,10.00
2022-10-23T02:30:14.122Z,10.00
2022-10-23T02:32:45.307Z,10.00
2022-10-23T02:35:12.926Z,9.90
2022-10-23T02:37:40.138Z,9.90
2022-10-23T02:40:09.685Z,9.90
2022-10-23T02:42:48.454Z,9.80
2022-10-23T02:45:19.220Z,9.80
2022-10-23T02:48:16.773Z,9.80
2022-10-23T02:51:10.055Z,9.80
2022-10-23T02:53:49.206Z,9.80
2022-10-23T02:56:45.530Z,9.80
2022-10-23T02:59:33.916Z,9.80
2022-10-23T03:02:25.985Z,9.80
2022-10-23T03:04:56.002Z,9.90
2022-10-23T03:07:25.916Z,9.80
2022-10-23T03:09:52.691Z,9.80
2022-10-23T03:12:19.487Z,9.80
2022-10-23T03:14:46.290Z,9.80
2022-10-23T03:17:13.103Z,9.80
2022-10-23T03:19:39.889Z,9.80
2022-10-23T03:22:06.701Z,9.80
2022-10-23T03:24:33.463Z,9.80
2022-10-23T03:27:00.226Z,9.70
2022-10-23T03:29:26.975Z,9.80
2022-10-23T03:31:55.550Z,9.70
2022-10-23T03:34:22.467Z,9.70
2022-10-23T03:36:49.308Z,9.70
2022-10-23T03:39:17.262Z,9.70
2022-10-23T03:41:44.198Z,9.70
2022-10-23T03:44:10.979Z,9.70
2022-10-23T03:46:37.748Z,9.70
2022-10-23T03:49:04.654Z,9.70
2022-10-23T03:51:31.751Z,9.70
2022-10-23T03:53:58.569Z,9.70
2022-10-23T03:56:25.357Z,9.60
2022-10-23T03:58:52.404Z,9.60
2022-10-23T04:01:19.408Z,9.70
2022-10-23T04:03:46.249Z,9.70
2022-10-23T04:06:13.179Z,9.70
2022-10-23T04:08:40.088Z,9.60
2022-10-23T04:11:06.911Z,9.60
2022-10-23T04:13:33.682Z,9.60
2022-10-23T04:16:00.592Z,9.60
2022-10-23T04:18:27.408Z,9.60
2022-10-23T04:20:54.415Z,9.70
2022-10-23T04:23:21.184Z,9.60
2022-10-23T04:28:19.753Z,9.70
2022-10-23T04:30:46.547Z,9.70
2022-10-23T04:33:13.304Z,9.70
2022-10-23T04:35:40.060Z,9.70
2022-10-23T04:38:06.867Z,9.70
2022-10-23T04:40:33.888Z,9.70
2022-10-23T04:43:00.725Z,9.70
2022-10-23T04:45:27.495Z,9.70
2022-10-23T04:47:54.318Z,9.70
2022-10-23T04:50:21.248Z,9.70
2022-10-23T04:52:48.236Z,9.70
2022-10-23T04:55:15.204Z,9.70
2022-10-23T04:57:41.993Z,9.70
2022-10-23T05:00:12.069Z,9.70
2022-10-23T05:02:38.828Z,9.70
2022-10-23T05:05:07.071Z,9.70
2022-10-23T05:07:34.820Z,9.70
2022-10-23T05:10:01.599Z,9.70
2022-10-23T05:12:28.386Z,9.70
2022-10-23T05:14:55.332Z,9.70
2022-10-23T05:17:34.562Z,9.70
2022-10-23T05:20:05.558Z,9.70
2022-10-23T05:22:36.846Z,9.70
2022-10-23T05:25:04.756Z,9.70
2022-10-23T05:27:31.692Z,9.70
2022-10-23T05:29:58.452Z,9.70
2022-10-23T05:32:27.604Z,9.70
2022-10-23T05:34:55.175Z,9.60
2022-10-23T05:37:22.673Z,9.60
2022-10-23T05:39:49.450Z,9.70
2022-10-23T05:42:16.308Z,9.70
2022-10-23T05:44:43.089Z,9.60
2022-10-23T05:47:09.904Z,9.70
2022-10-23T05:49:36.718Z,9.60
2022-10-23T05:52:03.584Z,9.60
2022-10-23T05:54:30.456Z,9.60
2022-10-23T05:56:57.477Z,9.60
2022-10-23T05:59:24.516Z,9.60
2022-10-23T06:01:51.362Z,9.60
2022-10-23T06:04:18.167Z,9.70
2022-10-23T06:06:47.882Z,9.70
2022-10-23T06:09:15.546Z,9.60
2022-10-23T06:11:43.028Z,9.70
2022-10-23T06:14:09.840Z,9.60
2022-10-23T06:16:36.656Z,9.70
2022-10-23T06:19:03.566Z,9.70
2022-10-23T06:21:30.344Z,9.70
2022-10-23T06:23:57.701Z,9.70
2022-10-23T06:26:24.530Z,9.70
2022-10-23T06:28:51.335Z,9.80
2022-10-23T06:31:19.620Z,9.80
2022-10-23T06:33:46.529Z,9.80
2022-10-23T06:36:13.631Z,9.90
2022-10-23T06:38:40.768Z,9.90
2022-10-23T06:41:20.038Z,9.90
2022-10-23T06:43:51.525Z,9.90
2022-10-23T06:46:19.021Z,10.00
2022-10-23T06:48:45.799Z,10.00
2022-10-23T06:51:15.497Z,10.00
2022-10-23T06:53:43.211Z,10.00
2022-10-23T06:56:10.873Z,10.10
2022-10-23T06:58:39.318Z,10.10
2022-10-23T07:01:09.453Z,10.20
2022-10-23T07:03:36.779Z,10.20
2022-10-23T07:06:08.753Z,10.30
2022-10-23T07:08:35.934Z,10.30
2022-10-23T07:11:04.930Z,10.30
2022-10-23T07:13:32.887Z,10.40
2022-10-23T07:15:59.686Z,10.40
2022-10-23T07:18:26.480Z,10.50
2022-10-23T07:20:58.621Z,10.50
2022-10-23T07:23:25.531Z,10.60
2022-10-23T07:25:52.347Z,10.60
2022-10-23T07:28:19.240Z,10.60
2022-10-23T07:30:46.055Z,10.70
2022-10-23T07:33:13.788Z,10.70
2022-10-23T07:35:41.113Z,10.70
2022-10-23T07:38:08.051Z,10.80
2022-10-23T07:40:35.153Z,10.80
2022-10-23T07:43:02.157Z,10.90
2022-10-23T07:45:28.951Z,10.90
2022-10-23T07:47:55.700Z,11.00
2022-10-23T07:50:22.506Z,11.00
2022-10-23T07:52:49.324Z,11.00
2022-10-23T07:55:16.327Z,11.10
2022-10-23T07:57:43.179Z,11.10
2022-10-23T08:00:11.663Z,11.20
2022-10-23T08:02:38.557Z,11.20
2022-10-23T08:05:05.938Z,11.30
2022-10-23T08:07:32.816Z,11.40
2022-10-23T08:09:59.572Z,11.40
2022-10-23T08:12:26.417Z,11.50
2022-10-23T08:14:53.262Z,11.60
2022-10-23T08:17:20.126Z,11.60
2022-10-23T08:19:48.449Z,11.70
2022-10-23T08:22:15.396Z,11.70
2022-10-23T08:24:42.367Z,11.80
2022-10-23T08:27:09.247Z,11.80
2022-10-23T08:29:36.143Z,11.90
2022-10-23T08:32:03.044Z,12.00
2022-10-23T08:34:29.817Z,12.00
2022-10-23T08:36:56.759Z,12.10
2022-10-23T08:39:23.704Z,12.10
2022-10-23T08:41:52.562Z,12.20
2022-10-23T08:44:22.165Z,12.30
2022-10-23T08:47:10.674Z,12.40
2022-10-23T08:49:46.425Z,12.40
2022-10-23T08:52:21.952Z,12.50
2022-10-23T08:55:18.805Z,12.60
2022-10-23T08:58:15.672Z,12.80
2022-10-23T09:00:43.588Z,12.90
2022-10-23T09:03:13.156Z,13.00
2022-10-23T09:05:55.396Z,13.10
2022-10-23T09:08:54.823Z,13.20
2022-10-23T09:11:30.581Z,13.30
2022-10-23T09:14:00.409Z,13.40
2022-10-23T09:16:38.006Z,13.50
2022-10-23T09:19:27.341Z,13.60
2022-10-23T09:21:56.057Z,13.70
2022-10-23T09:24:25.811Z,13.80
2022-10-23T09:26:54.307Z,13.90
2022-10-23T09:29:33.031Z,14.00
2022-10-23T09:32:01.480Z,14.10
2022-10-23T09:34:31.507Z,14.20
2022-10-23T09:37:01.944Z,14.30
2022-10-23T09:39:36.484Z,14.30
2022-10-23T09:42:24.778Z,14.40
2022-10-23T09:44:54.364Z,14.50
2022-10-23T09:47:24.296Z,14.60
2022-10-23T09:49:56.805Z,14.70
2022-10-23T09:52:36.809Z,14.80
2022-10-23T09:55:20.514Z,14.90
2022-10-23T09:57:47.814Z,15.00
2022-10-23T10:00:16.848Z,15.10
2022-10-23T10:03:01.553Z,15.10
2022-10-23T10:05:34.637Z,15.30
2022-10-23T10:08:24.831Z,15.50
2022-10-23T10:10:53.480Z,15.60
2022-10-23T10:13:38.122Z,15.80
2022-10-23T10:16:21.904Z,15.90
2022-10-23T10:18:59.576Z,16.10
2022-10-23T10:21:49.326Z,16.20
2022-10-23T10:24:22.296Z,16.20
2022-10-23T10:27:34.858Z,16.30
2022-10-23T10:30:10.445Z,16.30
2022-10-23T10:33:21.805Z,16.30
2022-10-23T10:35:51.363Z,16.30
2022-10-23T10:38:21.007Z,16.30
2022-10-23T10:41:32.157Z,16.30
2022-10-23T10:44:14.904Z,16.30
2022-10-23T10:47:05.583Z,16.30
2022-10-23T10:49:40.432Z,16.30
2022-10-23T10:52:25.980Z,16.30
2022-10-23T10:55:30.195Z,16.30
2022-10-23T10:58:03.349Z,16.40
2022-10-23T11:00:33.479Z,16.40
2022-10-23T11:03:06.183Z,16.40
2022-10-23T11:05:42.646Z,16.50
2022-10-23T11:08:34.255Z,16.50
2022-10-23T11:11:18.267Z,16.40
2022-10-23T11:13:45.774Z,16.40
2022-10-23T11:16:22.333Z,16.40
2022-10-23T11:19:15.900Z,16.30
2022-10-23T11:21:44.399Z,16.30
2022-10-23T11:24:14.021Z,16.20
2022-10-23T11:27:08.072Z,16.20
2022-10-23T11:30:16.840Z,16.10
2022-10-23T11:32:51.084Z,16.10
2022-10-23T11:35:30.657Z,16.00
2022-10-23T11:38:01.733Z,15.90
2022-10-23T11:40:29.548Z,15.90
2022-10-23T11:42:56.293Z,15.90
2022-10-23T11:45:28.996Z,15.90
2022-10-23T11:48:15.387Z,16.00
2022-10-23T11:50:45.429Z,16.10
2022-10-23T11:53:30.985Z,16.20
2022-10-23T11:56:11.555Z,16.20
2022-10-23T11:58:52.255Z,16.30
2022-10-23T12:01:37.190Z,16.30
2022-10-23T12:04:14.666Z,16.30
2022-10-23T12:06:51.894Z,16.40
2022-10-23T12:09:26.701Z,16.30
2022-10-23T12:12:07.770Z,16.40
2022-10-23T12:14:38.329Z,16.40
2022-10-23T12:17:38.415Z,16.50
2022-10-23T12:20:08.229Z,16.50
2022-10-23T12:23:11.973Z,16.50
2022-10-23T12:26:13.668Z,16.50
2022-10-23T12:28:56.352Z,16.50
2022-10-23T12:31:31.072Z,16.50
2022-10-23T12:34:07.590Z,16.50
2022-10-23T12:36:51.073Z,16.50
2022-10-23T12:39:44.388Z,16.50
2022-10-23T12:42:25.159Z,16.60
2022-10-23T12:45:17.240Z,16.70
2022-10-23T12:47:46.621Z,16.80
2022-10-23T12:50:23.983Z,16.80
2022-10-23T12:52:56.183Z,16.90
2022-10-23T12:55:25.387Z,16.90
2022-10-23T12:57:54.618Z,16.90
2022-10-23T13:00:24.050Z,16.90
2022-10-23T13:03:01.191Z,16.80
2022-10-23T13:05:28.733Z,16.80
2022-10-23T13:07:57.103Z,16.80
2022-10-23T13:10:24.761Z,16.70
2022-10-23T13:13:05.950Z,16.60
2022-10-23T13:15:41.484Z,16.60
2022-10-23T13:18:10.139Z,16.50
2022-10-23T13:20:52.231Z,16.50
2022-10-23T13:23:28.633Z,16.50
2022-10-23T13:26:04.621Z,16.50
2022-10-23T13:28:42.512Z,16.50
2022-10-23T13:31:12.500Z,16.60
2022-10-23T13:33:43.632Z,16.70
2022-10-23T13:36:13.382Z,16.70
2022-10-23T13:39:08.053Z,16.80
2022-10-23T13:41:41.185Z,16.80
2022-10-23T13:44:11.493Z,16.90
2022-10-23T13:46:38.395Z,16.90
2022-10-23T13:49:05.358Z,16.90
2022-10-23T13:51:42.645Z,16.90
2022-10-23T13:54:15.673Z,16.90
2022-10-23T13:56:42.740Z,16.90
2022-10-23T13:59:11.416Z,16.80
2022-10-23T14:01:38.728Z,16.80
2022-10-23T14:04:09.206Z,16.70
2022-10-23T14:06:37.533Z,16.70
2022-10-23T14:09:10.537Z,16.60
2022-10-23T14:11:37.361Z,16.60
2022-10-23T14:14:04.222Z,16.50
2022-10-23T14:16:31.080Z,16.50
2022-10-23T14:18:58.076Z,16.50
2022-10-23T14:21:25.683Z,16.50
2022-10-23T14:23:53.894Z,16.40
2022-10-23T14:26:23.840Z,16.40
2022-10-23T14:28:59.561Z,16.30
2022-10-23T14:31:29.844Z,16.30
2022-10-23T14:33:58.873Z,16.30
2022-10-23T14:36:30.914Z,16.30
2022-10-23T14:39:05.491Z,16.20
2022-10-23T14:41:32.331Z,16.20
2022-10-23T14:43:59.247Z,16.20
2022-10-23T14:46:26.284Z,16.10
2022-10-23T14:48:57.457Z,16.10
2022-10-23T14:51:30.080Z,16.10
2022-10-23T14:54:01.955Z,16.10
2022-10-23T14:56:30.151Z,16.10
2022-10-23T14:59:03.431Z,16.10
2022-10-23T15:01:31.944Z,16.10
2022-10-23T15:03:59.200Z,16.00
2022-10-23T15:06:26.114Z,16.10
2022-10-23T15:08:55.467Z,16.00
2022-10-23T15:11:23.657Z,16.00
2022-10-23T15:13:51.024Z,16.00
2022-10-23T15:16:18.199Z,16.00
2022-10-23T15:18:45.009Z,15.90
2022-10-23T15:21:11.880Z,15.90
2022-10-23T15:23:41.017Z,15.90
2022-10-23T15:26:13.548Z,15.90
2022-10-23T15:28:40.331Z,15.80
2022-10-23T15:31:23.157Z,15.80
2022-10-23T15:33:49.937Z,15.80
2022-10-23T15:36:16.727Z,15.70
2022-10-23T15:38:43.497Z,15.70
2022-10-23T15:41:16.189Z,15.70
2022-10-23T15:43:43.067Z,15.70
2022-10-23T15:46:10.033Z,15.60
2022-10-23T15:48:36.984Z,15.60
2022-10-23T15:51:03.951Z,15.60
2022-10-23T15:53:30.744Z,15.60
2022-10-23T15:55:58.811Z,15.50
2022-10-23T15:58:26.134Z,15.50
2022-10-23T16:00:53.052Z,15.40
2022-10-23T16:03:19.873Z,15.40
2022-10-23T16:05:46.716Z,15.40
2022-10-23T16:08:13.635Z,15.30
2022-10-23T16:10:43.554Z,15.20
2022-10-23T16:13:10.396Z,15.20
2022-10-23T16:15:38.474Z,15.20
2022-10-23T16:18:06.499Z,15.10
2022-10-23T16:20:33.530Z,15.10
2022-10-23T16:23:00.342Z,15.10
2022-10-23T16:25:27.313Z,15.10
2022-10-23T16:27:54.109Z,15.00
2022-10-23T16:30:22.894Z,15.00
2022-10-23T16:32:50.856Z,15.00
2022-10-23T16:35:17.678Z,15.00
2022-10-23T16:37:44.727Z,15.00
2022-10-23T16:40:11.808Z,14.90
2022-10-23T16:42:40.336Z,14.90
2022-10-23T16:45:08.892Z,14.80
2022-10-23T16:47:35.822Z,14.80
2022-10-23T16:50:02.760Z,14.80
2022-10-23T16:52:29.653Z,14.80
2022-10-23T16:54:56.658Z,14.80
2022-10-23T16:57:24.119Z,14.80
2022-10-23T16:59:50.884Z,14.80
2022-10-23T17:02:17.937Z,14.80
2022-10-23T17:04:44.964Z,14.70
2022-10-23T17:07:13.125Z,14.80
2022-10-23T17:09:40.922Z,14.70
2022-10-23T17:12:07.940Z,14.70
2022-10-23T17:14:34.964Z,14.70
2022-10-23T17:17:02.393Z,14.70
2022-10-23T17:19:46.963Z,14.70
2022-10-23T17:22:14.349Z,14.70
2022-10-23T17:24:44.196Z,14.80
2022-10-23T17:27:13.305Z,14.80
2022-10-23T17:29:40.246Z,14.90
2022-10-23T17:32:07.234Z,14.90
2022-10-23T17:34:34.153Z,14.90
2022-10-23T17:37:01.467Z,15.00
2022-10-23T17:39:29.944Z,15.00
2022-10-23T17:41:57.339Z,15.10
2022-10-23T17:44:24.723Z,15.10
2022-10-23T17:46:53.784Z,15.10
2022-10-23T17:49:21.839Z,15.20
2022-10-23T17:51:54.961Z,15.20
2022-10-23T17:54:23.449Z,15.20
2022-10-23T17:56:50.367Z,15.20
2022-10-23T17:59:19.513Z,15.30
2022-10-23T18:01:48.167Z,15.30
2022-10-23T18:04:17.254Z,15.30
2022-10-23T18:06:49.511Z,15.30
2022-10-23T18:09:17.014Z,15.30
2022-10-23T18:11:48.142Z,15.40
2022-10-23T18:14:17.363Z,15.50
2022-10-23T18:16:45.716Z,15.50
2022-10-23T18:19:14.355Z,15.60
2022-10-23T18:21:41.190Z,15.60
2022-10-23T18:24:08.499Z,15.60
2022-10-23T18:26:37.600Z,15.60
2022-10-23T18:29:07.567Z,15.60
2022-10-23T18:31:37.326Z,15.70
2022-10-23T18:34:07.604Z,15.70
2022-10-23T18:36:38.024Z,15.60
2022-10-23T18:39:06.246Z,15.60
2022-10-23T18:41:35.901Z,15.60
2022-10-23T18:44:03.052Z,15.60
2022-10-23T18:46:29.969Z,15.60
2022-10-23T18:48:56.943Z,15.60
2022-10-23T18:51:29.408Z,15.60
2022-10-23T18:53:57.536Z,15.60
2022-10-23T18:56:26.767Z,15.60
2022-10-23T18:58:55.892Z,15.60
2022-10-23T19:01:24.192Z,15.50
2022-10-23T19:03:51.476Z,15.50
2022-10-23T19:06:18.860Z,15.50
2022-10-23T19:08:46.738Z,15.50
2022-10-23T19:11:15.636Z,15.50
2022-10-23T19:13:42.956Z,15.40
2022-10-23T19:16:24.958Z,15.40
2022-10-23T19:19:26.004Z,15.40
2022-10-23T19:21:53.896Z,15.40
2022-10-23T19:24:31.416Z,15.50
2022-10-23T19:27:00.337Z,15.40
2022-10-23T19:29:28.052Z,15.40
2022-10-23T19:31:55.409Z,15.40
2022-10-23T19:34:24.747Z,15.40
2022-10-23T19:36:53.665Z,15.40
2022-10-23T19:39:20.779Z,15.40
2022-10-23T19:41:47.768Z,15.40
2022-10-23T19:44:15.127Z,15.40
2022-10-23T19:46:42.004Z,15.40
2022-10-23T19:49:09.987Z,15.50
2022-10-23T19:51:37.712Z,15.50
2022-10-23T19:54:05.178Z,15.50
2022-10-23T19:56:32.237Z,15.50
2022-10-23T19:58:59.033Z,15.60
2022-10-23T20:01:26.102Z,15.60
2022-10-23T20:03:54.815Z,15.60
2022-10-23T20:06:25.419Z,15.60
2022-10-23T20:08:52.575Z,15.60
2022-10-23T20:11:28.970Z,15.60
2022-10-23T20:13:56.617Z,15.60
2022-10-23T20:16:26.482Z,15.60
2022-10-23T20:18:53.825Z,15.60
2022-10-23T20:21:20.880Z,15.60
2022-10-23T20:23:48.156Z,15.60
2022-10-23T20:26:18.251Z,15.60
2022-10-23T20:28:47.089Z,15.60
2022-10-23T20:31:15.288Z,15.60
2022-10-23T20:33:43.133Z,15.60
2022-10-23T20:36:28.603Z,15.60
2022-10-23T20:38:56.606Z,15.60
2022-10-23T20:41:26.026Z,15.50
2022-10-23T20:43:55.471Z,15.60
2022-10-23T20:46:25.450Z,15.60
2022-10-23T20:48:53.082Z,15.60
2022-10-23T20:51:23.000Z,15.70
2022-10-23T20:53:50.899Z,15.60
2022-10-23T20:56:19.209Z,15.60
2022-10-23T20:58:46.612Z,15.50
2022-10-23T21:01:16.885Z,15.30
2022-10-23T21:03:44.703Z,15.20
2022-10-23T21:06:16.121Z,15.10
2022-10-23T21:08:43.155Z,15.00
2022-10-23T21:11:15.000Z,14.90
2022-10-23T21:13:43.832Z,14.80
2022-10-23T21:16:24.871Z,14.80
2022-10-23T21:18:56.043Z,14.80
2022-10-23T21:21:23.691Z,14.80
2022-10-23T21:23:53.501Z,14.70
2022-10-23T21:26:22.027Z,14.70
2022-10-23T21:28:56.229Z,14.70
2022-10-23T21:31:37.812Z,14.70
2022-10-23T21:34:04.995Z,14.70
2022-10-23T21:36:34.240Z,14.70
2022-10-23T21:39:06.759Z,14.60
2022-10-23T21:41:34.862Z,14.60
2022-10-23T21:44:05.481Z,14.60
2022-10-23T21:46:36.904Z,14.60
2022-10-23T21:49:04.009Z,14.60
2022-10-23T21:51:35.632Z,14.70
2022-10-23T21:54:03.115Z,14.70
2022-10-23T21:56:47.329Z,14.70
2022-10-23T21:59:18.209Z,14.70
2022-10-23T22:01:46.730Z,14.70
2022-10-23T22:04:15.002Z,14.70
2022-10-23T22:06:42.835Z,14.80
2022-10-23T22:09:12.099Z,14.80
2022-10-23T22:11:39.180Z,14.70
2022-10-23T22:14:05.949Z,14.80
2022-10-23T22:16:32.778Z,14.80
2022-10-23T22:18:59.732Z,14.80
2022-10-23T22:21:29.759Z,14.80
2022-10-23T22:23:58.876Z,14.80
2022-10-23T22:26:37.615Z,14.80
2022-10-23T22:29:10.426Z,14.70
2022-10-23T22:31:38.562Z,14.70
2022-10-23T22:34:18.714Z,14.70
2022-10-23T22:36:55.130Z,14.70
2022-10-23T22:39:22.834Z,14.70
2022-10-23T22:41:49.739Z,14.70
2022-10-23T22:44:16.802Z,14.70
2022-10-23T22:46:44.485Z,14.70
2022-10-23T22:49:11.343Z,14.60
2022-10-23T22:51:39.635Z,14.60
2022-10-23T22:54:07.087Z,14.60
2022-10-23T22:56:34.374Z,14.60
2022-10-23T22:59:01.419Z,14.60
2022-10-23T23:01:32.921Z,14.60
2022-10-23T23:04:08.810Z,14.60
2022-10-23T23:06:47.562Z,14.60
2022-10-23T23:09:17.958Z,14.60
2022-10-23T23:11:51.809Z,14.60
2022-10-23T23:14:24.057Z,14.70
2022-10-23T23:16:52.726Z,14.70
2022-10-23T23:19:20.077Z,14.70
2022-10-23T23:21:46.896Z,14.70
2022-10-23T23:24:14.049Z,14.70
2022-10-23T23:26:40.954Z,14.70
2022-10-23T23:29:08.052Z,14.80
2022-10-23T23:31:34.893Z,14.80
2022-10-23T23:34:01.780Z,14.80
2022-10-23T23:36:29.205Z,14.90
2022-10-23T23:38:57.974Z,14.90
2022-10-23T23:41:25.926Z,14.90
2022-10-23T23:43:55.279Z,15.00
2022-10-23T23:46:22.666Z,14.90
2022-10-23T23:48:50.245Z,14.90
2022-10-23T23:51:19.969Z,14.90
2022-10-23T23:53:47.794Z,14.80
2022-10-23T23:56:14.989Z,14.80
2022-10-23T23:58:41.824Z,14.80
